Flight Track Log - Related Links

Times and Time Zones

All times are in EDT time to prevent confusion due to time zone crossing. See the UCA3599 flight status page for this flight to view local times or setup timezone preferences in your user account.

Time Position Orientation Groundspeed Altitude Reporting Facility
EDT Latitude Longitude Course Direction KTS MPH feet Rate Location/Type
Wed 06:12:53 AM 42.1717 -75.9697 211° Southwest 255 293 3,100  Level New York Center
Wed 06:13:53 AM 42.1300 -75.9747 185° South 173 199 4,400 1,350 Climbing New York Center
Wed 06:14:53 AM 42.0947 -76.0194 223° Southwest 180 207 5,800 1,450 Climbing New York Center
Wed 06:15:53 AM 42.0489 -76.0661 217° Southwest 190 219 7,300 1,200 Climbing New York Center
Wed 06:16:53 AM 42.0033 -76.1097 215° Southwest 197 227 8,200 1,100 Climbing New York Center
Wed 06:17:00 AM 41.8338 -76.1577 212° Southwest  Level Estimated
Wed 06:17:53 AM 41.9553 -76.1589 217° Southwest 211 243 9,500  Level New York Center
Wed 06:18:00 AM 41.7713 -76.1872 211° Southwest  Level Estimated
Wed 06:18:53 AM 41.9117 -76.2028 217° Southwest 211 243 10,700  Level New York Center
Wed 06:19:53 AM 41.8636 -76.2517 217° Southwest 211 243 11,900 650 Climbing New York Center
Wed 06:20:53 AM 41.8044 -76.3108 217° Southwest 230 265 12,000 450 Climbing New York Center
Wed 06:21:53 AM 41.7475 -76.3703 218° Southwest 257 296 12,800 1,000 Climbing New York Center
Wed 06:22:53 AM 41.6975 -76.4158 214° Southwest 251 289 14,000 600 Climbing New York Center
Wed 06:23:53 AM 41.6428 -76.4725 218° Southwest 257 296 14,000  Level New York Center
Wed 06:24:53 AM 41.5622 -76.5044 197° South 268 308 14,000 50 Level New York Center
Wed 06:25:53 AM 41.4894 -76.5397 200° South 280 322 14,100 793 Climbing New York Center
Wed 06:26:54 AM 41.4194 -76.5669 196° South 274 315 15,600 950 Climbing New York Center
Wed 06:27:53 AM 41.3622 -76.5897 197° South 253 291 16,000 202 Climbing New York Center
Wed 06:28:53 AM 41.2919 -76.6194 198° South 259 298 16,000  Level New York Center
Wed 06:29:53 AM 41.2108 -76.6567 199° South 276 318 16,000  Level New York Center
Wed 06:30:53 AM 41.1428 -76.6864 198° South 281 323 16,000  Level New York Center
Wed 06:31:53 AM 41.0597 -76.7206 197° South 286 329 16,000  Level New York Center
Wed 06:32:53 AM 40.9853 -76.7525 198° South 286 329 16,000  Level New York Center
Wed 06:33:53 AM 40.9192 -76.7797 197° South 286 329 16,000  Level New York Center
Wed 06:34:53 AM 40.8447 -76.8114 198° South 291 335 16,000  Level New York Center
Wed 06:35:53 AM 40.7639 -76.8456 198° South 291 335 16,000  Level New York Center
Wed 06:36:53 AM 40.6956 -76.8750 198° South 291 335 16,000  Level New York Center
Wed 06:37:53 AM 40.6147 -76.9061 196° South 291 335 16,000  Level New York Center
Wed 06:38:53 AM 40.5486 -76.9358 199° South 291 335 16,000  Level New York Center
Wed 06:39:53 AM 40.4678 -76.9694 198° South 291 335 16,000  Level New York Center
Wed 06:40:53 AM 40.3994 -76.9961 197° South 286 329 16,000 -500 Level New York Center
Wed 06:42:29 AM 40.2667 -77.0500 197° South 304 350 14,700 -890 Descending Potomac TRACON
Wed 06:43:28 AM 40.1833 -77.0833 197° South 302 348 13,700 -1,221 Descending Potomac TRACON
Wed 06:44:22 AM 40.1167 -77.1167 201° Southwest 295 339 12,400 -1,565 Descending Potomac TRACON
Wed 06:45:23 AM 40.0500 -77.1500 201° Southwest 285 328 10,700 -1,617 Descending Potomac TRACON
Wed 06:46:17 AM 39.9833 -77.1833 201° Southwest 280 322 9,300 -895 Descending Potomac TRACON
Wed 06:47:17 AM 39.9000 -77.2000 189° South 270 311 9,000 -500 Descending Potomac TRACON
Wed 06:48:17 AM 39.8333 -77.2333 201° Southwest 274 315 8,300 -526 Descending Potomac TRACON
Wed 06:49:11 AM 39.7667 -77.2667 201° Southwest 272 313 8,000 -368 Descending Potomac TRACON
Wed 06:50:11 AM 39.7000 -77.3000 201° Southwest 265 305 7,600 -550 Descending Potomac TRACON
Wed 06:51:11 AM 39.6333 -77.3333 201° Southwest 272 313 6,900 -684 Descending Potomac TRACON
Wed 06:52:05 AM 39.5667 -77.3833 210° Southwest 264 304 6,300 -474 Descending Potomac TRACON
Wed 06:53:05 AM 39.5000 -77.4167 201° Southwest 260 299 6,000 -474 Descending Potomac TRACON
Wed 06:53:59 AM 39.4500 -77.4333 194° South 260 299 5,400 -667 Descending Potomac TRACON
Wed 06:54:53 AM 39.3833 -77.4333 180° South 260 299 4,800 -737 Descending Potomac TRACON
Wed 06:55:53 AM 39.3000 -77.4333 180° South 249 287 4,000 -800 Descending Potomac TRACON
Wed 06:56:53 AM 39.2333 -77.4333 180° South 249 287 3,200 -500 Descending Potomac TRACON
Wed 06:57:53 AM 39.1667 -77.4333 180° South 242 278 3,000 -105 Descending Potomac TRACON
Wed 06:58:47 AM 39.1167 -77.4333 180° South 227 261 3,000 -421 Level Potomac TRACON
Wed 06:59:47 AM 39.0500 -77.4333 180° South 202 232 2,200 -850 Descending Potomac TRACON
Wed 07:00:47 AM 39.0000 -77.4333 180° South 160 184 1,300 -800 Descending Potomac TRACON
Wed 07:01:47 AM 38.9667 -77.4333 180° South 122 140 600 -700 Descending Potomac TRACON
Wed 07:03:00 AM 38.9474 -77.4599 180° South  Level Estimated
Wed 07:10:00 AM 38.9474 -77.4599 349° North  Level Estimated
Wed 07:11:00 AM 38.9474 -77.4599 349° North  Level Estimated
Wed 07:12:00 AM 38.9474 -77.4599 349° North  Level Estimated
Wed 07:13:00 AM 38.9474 -77.4599 349° North  Level Estimated

Login

Don't have an account? Register now (free) for customized features, flight alerts, and more!